sensor_id;sensor_type;location;lat;lon;timestamp;P1;durP1;ratioP1;P2;durP2;ratioP2
49183;SDS011;35021;49.214;12.270;2023-04-07T00:01:41;2.58;;;2.20;;
49183;SDS011;35021;49.214;12.270;2023-04-07T00:04:08;3.50;;;2.20;;
49183;SDS011;35021;49.214;12.270;2023-04-07T00:06:35;2.88;;;2.53;;
49183;SDS011;35021;49.214;12.270;2023-04-07T00:09:02;3.17;;;2.50;;
49183;SDS011;35021;49.214;12.270;2023-04-07T00:11:29;3.10;;;2.50;;
49183;SDS011;35021;49.214;12.270;2023-04-07T00:13:56;2.90;;;2.30;;
49183;SDS011;35021;49.214;12.270;2023-04-07T00:16:23;4.05;;;2.30;;
49183;SDS011;35021;49.214;12.270;2023-04-07T00:18:49;3.03;;;2.30;;
49183;SDS011;35021;49.214;12.270;2023-04-07T00:21:16;2.80;;;2.30;;
49183;SDS011;35021;49.214;12.270;2023-04-07T00:23:43;2.33;;;2.13;;
49183;SDS011;35021;49.214;12.270;2023-04-07T00:26:10;2.80;;;2.50;;
49183;SDS011;35021;49.214;12.270;2023-04-07T00:28:37;2.67;;;2.25;;
49183;SDS011;35021;49.214;12.270;2023-04-07T00:31:03;2.90;;;2.58;;
49183;SDS011;35021;49.214;12.270;2023-04-07T00:33:31;2.97;;;2.35;;
49183;SDS011;35021;49.214;12.270;2023-04-07T00:35:58;3.60;;;2.60;;
49183;SDS011;35021;49.214;12.270;2023-04-07T00:38:25;3.03;;;2.33;;
49183;SDS011;35021;49.214;12.270;2023-04-07T00:40:58;3.10;;;2.30;;
49183;SDS011;35021;49.214;12.270;2023-04-07T00:43:26;3.45;;;2.47;;
49183;SDS011;35021;49.214;12.270;2023-04-07T00:45:53;3.30;;;2.67;;
49183;SDS011;35021;49.214;12.270;2023-04-07T00:48:20;3.10;;;2.80;;
49183;SDS011;35021;49.214;12.270;2023-04-07T00:50:47;3.08;;;2.10;;
49183;SDS011;35021;49.214;12.270;2023-04-07T00:53:15;2.85;;;2.53;;
49183;SDS011;35021;49.214;12.270;2023-04-07T00:55:42;2.85;;;2.63;;
49183;SDS011;35021;49.214;12.270;2023-04-07T00:58:09;4.55;;;2.53;;
49183;SDS011;35021;49.214;12.270;2023-04-07T01:00:39;3.03;;;2.63;;
49183;SDS011;35021;49.214;12.270;2023-04-07T01:03:12;4.55;;;2.80;;
49183;SDS011;35021;49.214;12.270;2023-04-07T01:05:52;4.20;;;2.83;;
49183;SDS011;35021;49.214;12.270;2023-04-07T01:08:25;6.07;;;3.53;;
49183;SDS011;35021;49.214;12.270;2023-04-07T01:11:13;3.35;;;2.97;;
49183;SDS011;35021;49.214;12.270;2023-04-07T01:13:49;4.45;;;2.78;;
49183;SDS011;35021;49.214;12.270;2023-04-07T01:19:33;3.20;;;2.90;;
49183;SDS011;35021;49.214;12.270;2023-04-07T01:22:22;3.17;;;2.40;;
49183;SDS011;35021;49.214;12.270;2023-04-07T01:30:39;4.10;;;2.78;;
49183;SDS011;35021;49.214;12.270;2023-04-07T01:33:09;3.25;;;2.92;;
49183;SDS011;35021;49.214;12.270;2023-04-07T01:35:37;3.92;;;3.05;;
49183;SDS011;35021;49.214;12.270;2023-04-07T01:38:06;2.67;;;2.15;;
49183;SDS011;35021;49.214;12.270;2023-04-07T01:40:34;3.40;;;2.75;;
49183;SDS011;35021;49.214;12.270;2023-04-07T01:43:01;4.30;;;2.97;;
49183;SDS011;35021;49.214;12.270;2023-04-07T01:45:29;3.88;;;3.15;;
49183;SDS011;35021;49.214;12.270;2023-04-07T01:47:57;3.78;;;2.90;;
49183;SDS011;35021;49.214;12.270;2023-04-07T01:50:25;3.17;;;2.80;;
49183;SDS011;35021;49.214;12.270;2023-04-07T01:52:53;3.35;;;2.63;;
49183;SDS011;35021;49.214;12.270;2023-04-07T01:55:20;4.05;;;3.08;;
49183;SDS011;35021;49.214;12.270;2023-04-07T01:57:47;3.88;;;3.00;;
49183;SDS011;35021;49.214;12.270;2023-04-07T02:00:14;3.45;;;3.15;;
49183;SDS011;35021;49.214;12.270;2023-04-07T02:02:43;3.63;;;3.22;;
49183;SDS011;35021;49.214;12.270;2023-04-07T02:05:12;4.78;;;3.22;;
49183;SDS011;35021;49.214;12.270;2023-04-07T02:10:23;4.15;;;3.47;;
49183;SDS011;35021;49.214;12.270;2023-04-07T02:12:52;4.18;;;3.55;;
49183;SDS011;35021;49.214;12.270;2023-04-07T02:15:20;4.30;;;3.00;;
49183;SDS011;35021;49.214;12.270;2023-04-07T02:17:50;3.90;;;3.40;;
49183;SDS011;35021;49.214;12.270;2023-04-07T02:20:19;4.45;;;3.53;;
49183;SDS011;35021;49.214;12.270;2023-04-07T02:22:47;4.13;;;3.45;;
49183;SDS011;35021;49.214;12.270;2023-04-07T02:25:25;3.88;;;3.47;;
49183;SDS011;35021;49.214;12.270;2023-04-07T02:27:56;4.07;;;3.20;;
49183;SDS011;35021;49.214;12.270;2023-04-07T02:30:25;3.92;;;3.33;;
49183;SDS011;35021;49.214;12.270;2023-04-07T02:32:52;3.67;;;2.72;;
49183;SDS011;35021;49.214;12.270;2023-04-07T02:35:19;3.05;;;2.60;;
49183;SDS011;35021;49.214;12.270;2023-04-07T02:37:47;2.90;;;2.60;;
49183;SDS011;35021;49.214;12.270;2023-04-07T02:40:14;3.25;;;2.67;;
49183;SDS011;35021;49.214;12.270;2023-04-07T02:42:41;4.35;;;2.80;;
49183;SDS011;35021;49.214;12.270;2023-04-07T02:45:09;3.08;;;2.78;;
49183;SDS011;35021;49.214;12.270;2023-04-07T02:47:38;2.85;;;2.55;;
49183;SDS011;35021;49.214;12.270;2023-04-07T02:50:05;3.15;;;2.67;;
49183;SDS011;35021;49.214;12.270;2023-04-07T02:52:32;2.60;;;2.25;;
49183;SDS011;35021;49.214;12.270;2023-04-07T02:54:59;4.22;;;3.47;;
49183;SDS011;35021;49.214;12.270;2023-04-07T02:57:26;3.28;;;2.97;;
49183;SDS011;35021;49.214;12.270;2023-04-07T02:59:53;3.20;;;2.88;;
49183;SDS011;35021;49.214;12.270;2023-04-07T03:02:22;3.35;;;3.00;;
49183;SDS011;35021;49.214;12.270;2023-04-07T03:04:50;3.80;;;3.10;;
49183;SDS011;35021;49.214;12.270;2023-04-07T03:07:18;6.72;;;3.33;;
49183;SDS011;35021;49.214;12.270;2023-04-07T03:09:45;4.13;;;3.28;;
49183;SDS011;35021;49.214;12.270;2023-04-07T03:12:12;4.18;;;3.03;;
49183;SDS011;35021;49.214;12.270;2023-04-07T03:14:39;3.78;;;3.10;;
49183;SDS011;35021;49.214;12.270;2023-04-07T03:17:05;4.13;;;3.28;;
49183;SDS011;35021;49.214;12.270;2023-04-07T03:19:32;3.50;;;2.80;;
49183;SDS011;35021;49.214;12.270;2023-04-07T03:21:59;2.65;;;2.45;;
49183;SDS011;35021;49.214;12.270;2023-04-07T03:24:26;4.00;;;2.80;;
49183;SDS011;35021;49.214;12.270;2023-04-07T03:26:53;3.08;;;2.80;;
49183;SDS011;35021;49.214;12.270;2023-04-07T03:29:20;3.15;;;2.83;;
49183;SDS011;35021;49.214;12.270;2023-04-07T03:31:47;3.28;;;2.97;;
49183;SDS011;35021;49.214;12.270;2023-04-07T03:34:14;4.05;;;2.90;;
49183;SDS011;35021;49.214;12.270;2023-04-07T03:36:40;3.60;;;2.90;;
49183;SDS011;35021;49.214;12.270;2023-04-07T03:39:07;3.65;;;2.67;;
49183;SDS011;35021;49.214;12.270;2023-04-07T03:41:34;3.92;;;3.10;;
49183;SDS011;35021;49.214;12.270;2023-04-07T03:44:01;3.67;;;3.05;;
49183;SDS011;35021;49.214;12.270;2023-04-07T03:46:28;3.50;;;2.90;;
49183;SDS011;35021;49.214;12.270;2023-04-07T03:48:55;3.63;;;3.15;;
49183;SDS011;35021;49.214;12.270;2023-04-07T03:51:22;3.55;;;3.08;;
49183;SDS011;35021;49.214;12.270;2023-04-07T03:53:48;4.90;;;3.45;;
49183;SDS011;35021;49.214;12.270;2023-04-07T03:56:17;4.38;;;3.28;;
49183;SDS011;35021;49.214;12.270;2023-04-07T03:58:44;3.78;;;3.08;;
49183;SDS011;35021;49.214;12.270;2023-04-07T04:01:11;3.63;;;3.08;;
49183;SDS011;35021;49.214;12.270;2023-04-07T04:03:38;4.40;;;3.15;;
49183;SDS011;35021;49.214;12.270;2023-04-07T04:06:05;3.08;;;2.78;;
49183;SDS011;35021;49.214;12.270;2023-04-07T04:08:32;4.22;;;3.13;;
49183;SDS011;35021;49.214;12.270;2023-04-07T04:10:59;3.03;;;2.72;;
49183;SDS011;35021;49.214;12.270;2023-04-07T04:13:27;4.05;;;3.15;;
49183;SDS011;35021;49.214;12.270;2023-04-07T04:15:54;3.40;;;2.92;;
49183;SDS011;35021;49.214;12.270;2023-04-07T04:18:21;3.65;;;3.05;;
49183;SDS011;35021;49.214;12.270;2023-04-07T04:20:47;3.80;;;3.08;;
49183;SDS011;35021;49.214;12.270;2023-04-07T04:23:14;3.45;;;3.15;;
49183;SDS011;35021;49.214;12.270;2023-04-07T04:25:41;4.65;;;3.80;;
49183;SDS011;35021;49.214;12.270;2023-04-07T04:28:08;3.08;;;2.78;;
49183;SDS011;35021;49.214;12.270;2023-04-07T04:30:35;3.55;;;3.20;;
49183;SDS011;35021;49.214;12.270;2023-04-07T04:33:02;4.40;;;3.78;;
49183;SDS011;35021;49.214;12.270;2023-04-07T04:35:29;4.55;;;3.13;;
49183;SDS011;35021;49.214;12.270;2023-04-07T04:37:56;3.58;;;3.03;;
49183;SDS011;35021;49.214;12.270;2023-04-07T04:40:23;5.03;;;3.15;;
49183;SDS011;35021;49.214;12.270;2023-04-07T04:42:50;4.13;;;3.42;;
49183;SDS011;35021;49.214;12.270;2023-04-07T04:45:17;2.97;;;2.67;;
49183;SDS011;35021;49.214;12.270;2023-04-07T04:47:44;3.72;;;3.17;;
49183;SDS011;35021;49.214;12.270;2023-04-07T04:50:11;4.32;;;2.97;;
49183;SDS011;35021;49.214;12.270;2023-04-07T04:52:38;4.45;;;3.17;;
49183;SDS011;35021;49.214;12.270;2023-04-07T04:55:06;4.28;;;3.55;;
49183;SDS011;35021;49.214;12.270;2023-04-07T04:57:33;4.03;;;3.35;;
49183;SDS011;35021;49.214;12.270;2023-04-07T05:00:01;5.15;;;3.40;;
49183;SDS011;35021;49.214;12.270;2023-04-07T05:02:30;3.35;;;3.05;;
49183;SDS011;35021;49.214;12.270;2023-04-07T05:04:57;4.03;;;3.05;;
49183;SDS011;35021;49.214;12.270;2023-04-07T05:07:25;3.38;;;3.08;;
49183;SDS011;35021;49.214;12.270;2023-04-07T05:09:51;4.45;;;3.40;;
49183;SDS011;35021;49.214;12.270;2023-04-07T05:12:19;3.92;;;3.55;;
49183;SDS011;35021;49.214;12.270;2023-04-07T05:14:46;6.28;;;4.63;;
49183;SDS011;35021;49.214;12.270;2023-04-07T05:17:13;5.13;;;4.63;;
49183;SDS011;35021;49.214;12.270;2023-04-07T05:19:39;5.07;;;4.57;;
49183;SDS011;35021;49.214;12.270;2023-04-07T05:22:06;5.80;;;5.03;;
49183;SDS011;35021;49.214;12.270;2023-04-07T05:24:33;8.27;;;6.13;;
49183;SDS011;35021;49.214;12.270;2023-04-07T05:27:00;5.32;;;4.82;;
49183;SDS011;35021;49.214;12.270;2023-04-07T05:29:27;5.47;;;4.38;;
49183;SDS011;35021;49.214;12.270;2023-04-07T05:31:54;5.88;;;4.85;;
49183;SDS011;35021;49.214;12.270;2023-04-07T05:34:21;5.00;;;4.50;;
49183;SDS011;35021;49.214;12.270;2023-04-07T05:36:48;5.88;;;4.75;;
49183;SDS011;35021;49.214;12.270;2023-04-07T05:39:16;5.15;;;4.32;;
49183;SDS011;35021;49.214;12.270;2023-04-07T05:41:42;4.95;;;4.40;;
49183;SDS011;35021;49.214;12.270;2023-04-07T05:44:09;4.43;;;4.03;;
49183;SDS011;35021;49.214;12.270;2023-04-07T05:46:36;4.57;;;4.10;;
49183;SDS011;35021;49.214;12.270;2023-04-07T05:49:03;5.65;;;4.25;;
49183;SDS011;35021;49.214;12.270;2023-04-07T05:51:44;4.45;;;4.05;;
49183;SDS011;35021;49.214;12.270;2023-04-07T05:54:14;4.40;;;3.80;;
49183;SDS011;35021;49.214;12.270;2023-04-07T05:56:41;4.03;;;3.63;;
49183;SDS011;35021;49.214;12.270;2023-04-07T05:59:08;3.85;;;3.45;;
49183;SDS011;35021;49.214;12.270;2023-04-07T06:01:35;5.72;;;4.00;;
49183;SDS011;35021;49.214;12.270;2023-04-07T06:04:02;4.80;;;3.65;;
49183;SDS011;35021;49.214;12.270;2023-04-07T06:06:30;4.63;;;3.53;;
49183;SDS011;35021;49.214;12.270;2023-04-07T06:08:56;5.30;;;4.80;;
49183;SDS011;35021;49.214;12.270;2023-04-07T06:11:24;3.97;;;3.58;;
49183;SDS011;35021;49.214;12.270;2023-04-07T06:13:52;5.53;;;3.90;;
49183;SDS011;35021;49.214;12.270;2023-04-07T06:16:19;4.53;;;3.70;;
49183;SDS011;35021;49.214;12.270;2023-04-07T06:18:46;6.40;;;3.42;;
49183;SDS011;35021;49.214;12.270;2023-04-07T06:21:12;4.55;;;4.07;;
49183;SDS011;35021;49.214;12.270;2023-04-07T06:23:39;3.90;;;3.47;;
49183;SDS011;35021;49.214;12.270;2023-04-07T06:26:09;4.13;;;3.72;;
49183;SDS011;35021;49.214;12.270;2023-04-07T06:28:37;3.95;;;3.20;;
49183;SDS011;35021;49.214;12.270;2023-04-07T06:31:04;4.10;;;3.70;;
49183;SDS011;35021;49.214;12.270;2023-04-07T06:33:32;3.50;;;3.20;;
49183;SDS011;35021;49.214;12.270;2023-04-07T06:35:59;3.72;;;3.40;;
49183;SDS011;35021;49.214;12.270;2023-04-07T06:38:26;4.05;;;3.65;;
49183;SDS011;35021;49.214;12.270;2023-04-07T06:40:53;3.80;;;3.33;;
49183;SDS011;35021;49.214;12.270;2023-04-07T06:43:20;4.05;;;3.65;;
49183;SDS011;35021;49.214;12.270;2023-04-07T06:45:47;6.07;;;3.83;;
49183;SDS011;35021;49.214;12.270;2023-04-07T06:48:14;4.65;;;3.42;;
49183;SDS011;35021;49.214;12.270;2023-04-07T06:50:44;4.20;;;3.70;;
49183;SDS011;35021;49.214;12.270;2023-04-07T06:53:11;4.95;;;3.75;;
49183;SDS011;35021;49.214;12.270;2023-04-07T06:55:38;3.97;;;3.58;;
49183;SDS011;35021;49.214;12.270;2023-04-07T06:58:05;5.80;;;3.60;;
49183;SDS011;35021;49.214;12.270;2023-04-07T07:00:33;4.53;;;3.58;;
49183;SDS011;35021;49.214;12.270;2023-04-07T07:03:01;4.88;;;3.60;;
49183;SDS011;35021;49.214;12.270;2023-04-07T07:05:28;5.07;;;3.55;;
49183;SDS011;35021;49.214;12.270;2023-04-07T07:07:57;4.30;;;3.72;;
49183;SDS011;35021;49.214;12.270;2023-04-07T07:10:27;4.68;;;3.58;;
49183;SDS011;35021;49.214;12.270;2023-04-07T07:12:56;4.30;;;3.55;;
49183;SDS011;35021;49.214;12.270;2023-04-07T07:15:23;3.75;;;3.38;;
49183;SDS011;35021;49.214;12.270;2023-04-07T07:17:51;3.90;;;3.50;;
49183;SDS011;35021;49.214;12.270;2023-04-07T07:20:18;3.97;;;3.58;;
49183;SDS011;35021;49.214;12.270;2023-04-07T07:22:45;3.97;;;3.58;;
49183;SDS011;35021;49.214;12.270;2023-04-07T07:25:12;5.57;;;4.90;;
49183;SDS011;35021;49.214;12.270;2023-04-07T07:27:38;5.32;;;3.50;;
49183;SDS011;35021;49.214;12.270;2023-04-07T07:30:05;4.53;;;3.85;;
49183;SDS011;35021;49.214;12.270;2023-04-07T07:32:34;5.45;;;4.18;;
49183;SDS011;35021;49.214;12.270;2023-04-07T07:35:04;5.10;;;4.13;;
49183;SDS011;35021;49.214;12.270;2023-04-07T07:37:31;4.32;;;3.63;;
49183;SDS011;35021;49.214;12.270;2023-04-07T07:39:58;5.78;;;4.00;;
49183;SDS011;35021;49.214;12.270;2023-04-07T07:42:25;6.10;;;3.50;;
49183;SDS011;35021;49.214;12.270;2023-04-07T07:44:52;4.00;;;3.33;;
49183;SDS011;35021;49.214;12.270;2023-04-07T07:47:19;4.43;;;3.58;;
49183;SDS011;35021;49.214;12.270;2023-04-07T07:49:50;5.05;;;3.80;;
49183;SDS011;35021;49.214;12.270;2023-04-07T07:52:17;4.50;;;3.80;;
49183;SDS011;35021;49.214;12.270;2023-04-07T07:54:46;5.25;;;3.83;;
49183;SDS011;35021;49.214;12.270;2023-04-07T07:57:13;5.32;;;3.67;;
49183;SDS011;35021;49.214;12.270;2023-04-07T07:59:43;4.75;;;3.50;;
49183;SDS011;35021;49.214;12.270;2023-04-07T08:02:13;4.63;;;3.58;;
49183;SDS011;35021;49.214;12.270;2023-04-07T08:04:41;3.72;;;3.40;;
49183;SDS011;35021;49.214;12.270;2023-04-07T08:07:08;5.00;;;3.72;;
49183;SDS011;35021;49.214;12.270;2023-04-07T08:09:38;4.95;;;3.70;;
49183;SDS011;35021;49.214;12.270;2023-04-07T08:12:04;4.20;;;3.55;;
49183;SDS011;35021;49.214;12.270;2023-04-07T08:14:31;5.18;;;3.80;;
49183;SDS011;35021;49.214;12.270;2023-04-07T08:16:58;5.00;;;3.80;;
49183;SDS011;35021;49.214;12.270;2023-04-07T08:19:25;3.50;;;3.20;;
49183;SDS011;35021;49.214;12.270;2023-04-07T08:21:52;3.97;;;3.53;;
49183;SDS011;35021;49.214;12.270;2023-04-07T08:24:19;5.95;;;3.88;;
49183;SDS011;35021;49.214;12.270;2023-04-07T08:26:46;4.97;;;3.58;;
49183;SDS011;35021;49.214;12.270;2023-04-07T08:29:13;3.70;;;3.30;;
49183;SDS011;35021;49.214;12.270;2023-04-07T08:31:40;3.92;;;3.33;;
49183;SDS011;35021;49.214;12.270;2023-04-07T08:34:07;4.65;;;3.55;;
49183;SDS011;35021;49.214;12.270;2023-04-07T08:36:34;3.83;;;3.40;;
49183;SDS011;35021;49.214;12.270;2023-04-07T08:39:01;4.15;;;3.65;;
49183;SDS011;35021;49.214;12.270;2023-04-07T08:41:37;4.00;;;3.38;;
49183;SDS011;35021;49.214;12.270;2023-04-07T08:44:06;5.70;;;4.13;;
49183;SDS011;35021;49.214;12.270;2023-04-07T08:46:35;3.78;;;3.30;;
49183;SDS011;35021;49.214;12.270;2023-04-07T08:49:06;4.55;;;3.88;;
49183;SDS011;35021;49.214;12.270;2023-04-07T08:51:36;4.47;;;4.07;;
49183;SDS011;35021;49.214;12.270;2023-04-07T08:54:05;5.03;;;4.22;;
49183;SDS011;35021;49.214;12.270;2023-04-07T08:56:39;4.87;;;3.80;;
49183;SDS011;35021;49.214;12.270;2023-04-07T08:59:09;5.70;;;4.18;;
49183;SDS011;35021;49.214;12.270;2023-04-07T09:01:37;4.68;;;3.92;;
49183;SDS011;35021;49.214;12.270;2023-04-07T09:04:06;4.95;;;4.35;;
49183;SDS011;35021;49.214;12.270;2023-04-07T09:06:34;4.13;;;3.72;;
49183;SDS011;35021;49.214;12.270;2023-04-07T09:09:02;4.75;;;4.25;;
49183;SDS011;35021;49.214;12.270;2023-04-07T09:11:33;3.85;;;3.45;;
49183;SDS011;35021;49.214;12.270;2023-04-07T09:14:03;5.60;;;4.00;;
49183;SDS011;35021;49.214;12.270;2023-04-07T09:16:33;5.40;;;4.15;;
49183;SDS011;35021;49.214;12.270;2023-04-07T09:19:01;5.25;;;4.18;;
49183;SDS011;35021;49.214;12.270;2023-04-07T09:21:45;4.43;;;3.80;;
49183;SDS011;35021;49.214;12.270;2023-04-07T09:24:20;5.00;;;4.20;;
49183;SDS011;35021;49.214;12.270;2023-04-07T09:27:14;5.93;;;4.25;;
49183;SDS011;35021;49.214;12.270;2023-04-07T09:29:44;4.72;;;4.03;;
49183;SDS011;35021;49.214;12.270;2023-04-07T09:32:12;4.13;;;3.70;;
49183;SDS011;35021;49.214;12.270;2023-04-07T09:35:01;4.97;;;4.22;;
49183;SDS011;35021;49.214;12.270;2023-04-07T09:37:28;5.55;;;4.25;;
49183;SDS011;35021;49.214;12.270;2023-04-07T09:39:55;7.63;;;4.00;;
49183;SDS011;35021;49.214;12.270;2023-04-07T09:42:22;4.75;;;4.18;;
49183;SDS011;35021;49.214;12.270;2023-04-07T09:44:49;4.90;;;4.30;;
49183;SDS011;35021;49.214;12.270;2023-04-07T09:47:16;4.28;;;3.65;;
49183;SDS011;35021;49.214;12.270;2023-04-07T09:49:47;5.07;;;4.28;;
49183;SDS011;35021;49.214;12.270;2023-04-07T09:52:20;5.50;;;4.13;;
49183;SDS011;35021;49.214;12.270;2023-04-07T09:54:49;3.83;;;3.50;;
49183;SDS011;35021;49.214;12.270;2023-04-07T09:57:17;4.80;;;4.00;;
49183;SDS011;35021;49.214;12.270;2023-04-07T09:59:45;4.38;;;3.58;;
49183;SDS011;35021;49.214;12.270;2023-04-07T10:02:14;4.72;;;4.32;;
49183;SDS011;35021;49.214;12.270;2023-04-07T10:04:41;4.28;;;3.83;;
49183;SDS011;35021;49.214;12.270;2023-04-07T10:07:09;5.65;;;4.20;;
49183;SDS011;35021;49.214;12.270;2023-04-07T10:09:35;4.32;;;3.38;;
49183;SDS011;35021;49.214;12.270;2023-04-07T10:12:02;3.88;;;3.47;;
49183;SDS011;35021;49.214;12.270;2023-04-07T10:14:31;4.60;;;4.03;;
49183;SDS011;35021;49.214;12.270;2023-04-07T10:16:59;4.53;;;3.70;;
49183;SDS011;35021;49.214;12.270;2023-04-07T10:19:29;4.68;;;3.88;;
49183;SDS011;35021;49.214;12.270;2023-04-07T10:22:01;4.85;;;3.70;;
49183;SDS011;35021;49.214;12.270;2023-04-07T10:24:35;3.97;;;3.30;;
49183;SDS011;35021;49.214;12.270;2023-04-07T10:27:16;5.28;;;3.20;;
49183;SDS011;35021;49.214;12.270;2023-04-07T10:29:48;4.80;;;3.50;;
49183;SDS011;35021;49.214;12.270;2023-04-07T10:32:16;3.88;;;3.42;;
49183;SDS011;35021;49.214;12.270;2023-04-07T10:37:19;4.22;;;3.30;;
49183;SDS011;35021;49.214;12.270;2023-04-07T10:39:47;4.10;;;3.22;;
49183;SDS011;35021;49.214;12.270;2023-04-07T10:45:02;3.92;;;3.55;;
49183;SDS011;35021;49.214;12.270;2023-04-07T10:47:30;4.03;;;3.20;;
49183;SDS011;35021;49.214;12.270;2023-04-07T10:50:14;4.13;;;3.53;;
49183;SDS011;35021;49.214;12.270;2023-04-07T10:52:47;3.47;;;3.00;;
49183;SDS011;35021;49.214;12.270;2023-04-07T10:55:28;4.53;;;3.20;;
49183;SDS011;35021;49.214;12.270;2023-04-07T10:58:11;4.28;;;3.58;;
49183;SDS011;35021;49.214;12.270;2023-04-07T11:03:30;3.42;;;3.10;;
49183;SDS011;35021;49.214;12.270;2023-04-07T11:06:06;4.38;;;2.88;;
49183;SDS011;35021;49.214;12.270;2023-04-07T11:08:34;3.17;;;2.88;;
49183;SDS011;35021;49.214;12.270;2023-04-07T11:11:07;3.90;;;2.80;;
49183;SDS011;35021;49.214;12.270;2023-04-07T11:13:45;3.28;;;2.85;;
49183;SDS011;35021;49.214;12.270;2023-04-07T11:16:15;2.95;;;2.67;;
49183;SDS011;35021;49.214;12.270;2023-04-07T11:18:46;3.13;;;2.80;;
49183;SDS011;35021;49.214;12.270;2023-04-07T11:21:16;2.88;;;2.55;;
49183;SDS011;35021;49.214;12.270;2023-04-07T11:23:45;3.30;;;2.78;;
49183;SDS011;35021;49.214;12.270;2023-04-07T11:26:14;4.63;;;2.90;;
49183;SDS011;35021;49.214;12.270;2023-04-07T11:28:49;3.15;;;2.85;;
49183;SDS011;35021;49.214;12.270;2023-04-07T11:31:26;4.35;;;2.88;;
49183;SDS011;35021;49.214;12.270;2023-04-07T11:36:28;4.00;;;3.10;;
49183;SDS011;35021;49.214;12.270;2023-04-07T11:38:57;4.20;;;2.85;;
49183;SDS011;35021;49.214;12.270;2023-04-07T11:41:25;3.03;;;2.75;;
49183;SDS011;35021;49.214;12.270;2023-04-07T11:44:10;3.92;;;2.80;;
49183;SDS011;35021;49.214;12.270;2023-04-07T11:46:53;2.65;;;2.45;;
49183;SDS011;35021;49.214;12.270;2023-04-07T11:49:22;4.22;;;3.03;;
49183;SDS011;35021;49.214;12.270;2023-04-07T11:51:58;3.20;;;2.70;;
49183;SDS011;35021;49.214;12.270;2023-04-07T11:57:13;3.83;;;2.80;;
49183;SDS011;35021;49.214;12.270;2023-04-07T11:59:49;3.13;;;2.17;;
49183;SDS011;35021;49.214;12.270;2023-04-07T12:02:31;2.88;;;2.33;;
49183;SDS011;35021;49.214;12.270;2023-04-07T12:05:00;3.80;;;2.35;;
49183;SDS011;35021;49.214;12.270;2023-04-07T12:07:27;2.95;;;2.30;;
49183;SDS011;35021;49.214;12.270;2023-04-07T12:09:54;2.42;;;1.90;;
49183;SDS011;35021;49.214;12.270;2023-04-07T12:12:29;3.10;;;2.38;;
49183;SDS011;35021;49.214;12.270;2023-04-07T12:14:58;4.43;;;2.40;;
49183;SDS011;35021;49.214;12.270;2023-04-07T12:17:25;2.88;;;2.30;;
49183;SDS011;35021;49.214;12.270;2023-04-07T12:19:52;2.00;;;1.80;;
49183;SDS011;35021;49.214;12.270;2023-04-07T12:22:19;2.53;;;1.98;;
49183;SDS011;35021;49.214;12.270;2023-04-07T12:24:46;3.20;;;2.30;;
49183;SDS011;35021;49.214;12.270;2023-04-07T12:27:12;3.45;;;2.08;;
49183;SDS011;35021;49.214;12.270;2023-04-07T12:29:39;2.67;;;1.90;;
49183;SDS011;35021;49.214;12.270;2023-04-07T12:32:06;4.18;;;2.30;;
49183;SDS011;35021;49.214;12.270;2023-04-07T12:34:34;3.15;;;2.20;;
49183;SDS011;35021;49.214;12.270;2023-04-07T12:37:02;4.03;;;2.38;;
49183;SDS011;35021;49.214;12.270;2023-04-07T12:39:29;2.42;;;1.70;;
49183;SDS011;35021;49.214;12.270;2023-04-07T12:41:56;2.30;;;1.95;;
49183;SDS011;35021;49.214;12.270;2023-04-07T12:44:23;2.67;;;1.80;;
49183;SDS011;35021;49.214;12.270;2023-04-07T12:46:50;3.35;;;2.03;;
49183;SDS011;35021;49.214;12.270;2023-04-07T12:49:17;3.53;;;2.17;;
49183;SDS011;35021;49.214;12.270;2023-04-07T12:51:44;2.30;;;1.85;;
49183;SDS011;35021;49.214;12.270;2023-04-07T12:54:11;2.63;;;1.80;;
49183;SDS011;35021;49.214;12.270;2023-04-07T12:56:38;3.60;;;1.90;;
49183;SDS011;35021;49.214;12.270;2023-04-07T12:59:07;1.58;;;1.48;;
49183;SDS011;35021;49.214;12.270;2023-04-07T13:01:34;2.55;;;1.80;;
49183;SDS011;35021;49.214;12.270;2023-04-07T13:04:02;2.55;;;1.90;;
49183;SDS011;35021;49.214;12.270;2023-04-07T13:06:31;4.65;;;2.70;;
49183;SDS011;35021;49.214;12.270;2023-04-07T13:08:58;3.55;;;2.17;;
49183;SDS011;35021;49.214;12.270;2023-04-07T13:11:25;2.90;;;2.33;;
49183;SDS011;35021;49.214;12.270;2023-04-07T13:13:52;2.45;;;2.10;;
49183;SDS011;35021;49.214;12.270;2023-04-07T13:16:22;2.80;;;2.38;;
49183;SDS011;35021;49.214;12.270;2023-04-07T13:18:49;3.03;;;2.30;;
49183;SDS011;35021;49.214;12.270;2023-04-07T13:21:16;2.83;;;2.28;;
49183;SDS011;35021;49.214;12.270;2023-04-07T13:23:46;2.20;;;1.88;;
49183;SDS011;35021;49.214;12.270;2023-04-07T13:26:15;3.45;;;2.05;;
49183;SDS011;35021;49.214;12.270;2023-04-07T13:28:42;2.50;;;2.10;;
49183;SDS011;35021;49.214;12.270;2023-04-07T13:31:11;3.80;;;2.10;;
49183;SDS011;35021;49.214;12.270;2023-04-07T13:33:41;2.28;;;2.00;;
49183;SDS011;35021;49.214;12.270;2023-04-07T13:36:08;2.20;;;1.90;;
49183;SDS011;35021;49.214;12.270;2023-04-07T13:38:35;2.63;;;2.22;;
49183;SDS011;35021;49.214;12.270;2023-04-07T13:41:02;2.90;;;1.67;;
49183;SDS011;35021;49.214;12.270;2023-04-07T13:43:29;2.47;;;1.92;;
49183;SDS011;35021;49.214;12.270;2023-04-07T13:45:56;3.15;;;2.22;;
49183;SDS011;35021;49.214;12.270;2023-04-07T13:48:23;5.40;;;2.15;;
49183;SDS011;35021;49.214;12.270;2023-04-07T13:50:49;3.63;;;1.92;;
49183;SDS011;35021;49.214;12.270;2023-04-07T13:53:16;4.00;;;2.20;;
49183;SDS011;35021;49.214;12.270;2023-04-07T13:55:44;2.03;;;1.58;;
49183;SDS011;35021;49.214;12.270;2023-04-07T13:58:11;2.13;;;1.80;;
49183;SDS011;35021;49.214;12.270;2023-04-07T14:00:38;2.22;;;1.67;;
49183;SDS011;35021;49.214;12.270;2023-04-07T14:03:05;3.20;;;1.80;;
49183;SDS011;35021;49.214;12.270;2023-04-07T14:05:33;3.38;;;1.92;;
49183;SDS011;35021;49.214;12.270;2023-04-07T14:08:01;2.30;;;1.98;;
49183;SDS011;35021;49.214;12.270;2023-04-07T14:10:28;2.90;;;1.83;;
49183;SDS011;35021;49.214;12.270;2023-04-07T14:12:55;3.35;;;1.48;;
49183;SDS011;35021;49.214;12.270;2023-04-07T14:15:22;2.25;;;1.75;;
49183;SDS011;35021;49.214;12.270;2023-04-07T14:17:49;2.55;;;1.77;;
49183;SDS011;35021;49.214;12.270;2023-04-07T14:20:15;2.83;;;1.80;;
49183;SDS011;35021;49.214;12.270;2023-04-07T14:22:43;1.60;;;1.50;;
49183;SDS011;35021;49.214;12.270;2023-04-07T14:25:09;2.17;;;1.70;;
49183;SDS011;35021;49.214;12.270;2023-04-07T14:27:37;2.35;;;1.52;;
49183;SDS011;35021;49.214;12.270;2023-04-07T14:30:04;2.33;;;1.50;;
49183;SDS011;35021;49.214;12.270;2023-04-07T14:32:31;2.50;;;1.88;;
49183;SDS011;35021;49.214;12.270;2023-04-07T14:34:59;3.60;;;2.47;;
49183;SDS011;35021;49.214;12.270;2023-04-07T14:37:27;2.47;;;2.05;;
49183;SDS011;35021;49.214;12.270;2023-04-07T14:39:54;2.33;;;2.08;;
49183;SDS011;35021;49.214;12.270;2023-04-07T14:42:29;2.65;;;2.17;;
49183;SDS011;35021;49.214;12.270;2023-04-07T14:44:58;3.50;;;2.25;;
49183;SDS011;35021;49.214;12.270;2023-04-07T14:47:25;2.75;;;2.42;;
49183;SDS011;35021;49.214;12.270;2023-04-07T14:49:52;2.42;;;2.20;;
49183;SDS011;35021;49.214;12.270;2023-04-07T14:52:20;3.33;;;2.40;;
49183;SDS011;35021;49.214;12.270;2023-04-07T14:54:47;3.58;;;2.35;;
49183;SDS011;35021;49.214;12.270;2023-04-07T14:57:14;2.20;;;1.90;;
49183;SDS011;35021;49.214;12.270;2023-04-07T14:59:42;2.50;;;2.13;;
49183;SDS011;35021;49.214;12.270;2023-04-07T15:02:09;2.40;;;1.80;;
49183;SDS011;35021;49.214;12.270;2023-04-07T15:04:36;2.72;;;2.00;;
49183;SDS011;35021;49.214;12.270;2023-04-07T15:07:03;2.33;;;2.05;;